Gosford Narara Research, New South Wales

5:41 AM AEST on July 02, 2015 (GMT +1000)
Narara | | Change Station
CLOSE
Current Station
Personal Weather Station
Location: Narara, NEW SOUTH WALES
Elevation: 72 ft
Nearby Weather Stations

Elev 72 ft 33.41 °S, 151.33 °E | Updated 5 minutes ago

Rain
Rain
41.5 °F
Feels Like 42 °F
N
1.0
Wind Variable Wind from WSW
Gusts 2.0 mph

Today
High -- | Low -- °F
--% Chance of Precip.
Yesterday
High -- | Low -- °F
Precip. -- in
6:59 AM 4:57 PM
Full, 100% visible
Pressure 30.12 in
Visibility 0.1 miles
Clouds Overcast 100 ft
Windchill 42 °F
Dew Point 40 °F
Humidity 95%
Rainfall 0.00 in
Snow Depth Not available.
UV 0 out of 12
Pollen Not available.
Air Quality Not available.
Flu Activity Not available.
SPECI YSRI 011930Z AUTO 00000KT 0100 // OVC001 02/02 Q1020 RMK AUTO OBSCURATION CODES REMOVED

More Conditions Fewer Conditions

Pressure 30.12 in
Visibility 0.1 miles
Clouds Overcast 100 ft
Windchill 42 °F
Dew Point 40 °F
Humidity 95%
Rainfall 0.00 in
Snow Depth Not available.
UV 0 out of 12
Pollen Not available.
Air Quality Not available.
Flu Activity Not available.
SPECI YSRI 011930Z AUTO 00000KT 0100 // OVC001 02/02 Q1020 RMK AUTO OBSCURATION CODES REMOVED

More Conditions Fewer Conditions

10-Day Weather Forecast

×

Almanac

Astronomy

Jul. 02, 2015 Rise Set
Actual Time
Civil Twilight
Nautical Twilight
Astronomical Twilight
Moon
Length of Visible Light
Length of Day
Tomorrow will be .
, % of the Moon is Illuminated

Today's Extremes

Country Highs Country Lows

Community

WunderPhotos

Upload Photos

1,834,261 photos uploaded!

WunderBlogs® & News

Nearby

Air Quality

  Air Quality AQ Index Pollutant
Not available.

Snow Depth

Station Depth Elevation

Earthquake Activity

City Distance Mag. Time & Date
Minimum magnitude displayed is 2.5.

Coastal Water Temperatures

Place Temperature

Stations

Nearby Weather Stations

Station Location Temp. Windchill Dew Point Humidity Wind Precip. Elev Updated Type